• Join FlightAware (Why Join?)
  • Login
  • US Flag 
06:14PM EDT


 

Airport Tracker/Info


-or-


 

Live Flight TrackerFlight Track Log ✈ KFA273 ✈ 27-Apr-2012 ✈ CYHM - CYWG

Flight Track Log - Related Links

Times and Time Zones

All times are in EDT time to prevent confusion due to time zone crossing. See the KFA273 flight status page for this flight to view local times or setup timezone preferences in your user account.

Time Position Orientation Groundspeed Altitude Reporting Facility
EDT Latitude Longitude Course Direction KTS MPH feet Rate Location/Type
01:45AM 43.1667 -79.9000 270° West 10 12 800  Level Toronto Center
01:46AM 43.1667 -79.9500 245° Southwest 140 161 1,700 1,200 Climbing Toronto Center
01:47AM 43.1500 -80.0000 245° Southwest 150 173 3,200 1,200 Climbing Toronto Center
01:48AM 43.1333 -80.0500 324° Northwest 160 184 4,200 720 Climbing Toronto Center
01:49AM 43.1667 -80.0833 324° Northwest 170 196 4,700 1,200 Climbing Toronto Center
01:50AM 43.2167 -80.1333 316° Northwest 220 253 6,600 2,100 Climbing Toronto Center
01:51AM 43.2667 -80.2000 295° West 230 265 8,900 1,980 Climbing Toronto Center
01:52AM 43.3000 -80.3000 301° West 260 299 10,600 1,140 Climbing Toronto Center
01:53AM 43.3500 -80.4167 301° West 300 345 11,200 1,500 Climbing Toronto Center
01:54AM 43.4000 -80.5333 301° West 350 403 13,600 2,220 Climbing Toronto Center
01:55AM 43.4500 -80.6500 308° West 360 414 15,700 2,100 Climbing Toronto Center
01:56AM 43.5167 -80.7667 301° West 370 426 17,800 1,920 Climbing Toronto Center
01:57AM 43.5667 -80.8833 308° West 380 437 19,600 1,620 Climbing Toronto Center
01:58AM 43.6333 -81.0000 315° West 390 449 21,100 1,440 Climbing Toronto Center
01:59AM 43.7167 -81.1167 308° West 400 460 22,500 1,200 Climbing Toronto Center
02:00AM 43.7833 -81.2333 305° West 410 472 23,600 1,560 Climbing Toronto Center
02:01AM 43.8500 -81.3667 308° West 420 483 25,700 1,620 Climbing Toronto Center
02:02AM 43.9167 -81.4833 308° West 410 472 26,900 1,260 Climbing Toronto Center
02:03AM 43.9833 -81.6000 302° West 400 460 28,300 1,320 Climbing Toronto Center
02:04AM 44.0500 -81.7500 301° West 390 449 29,600 900 Climbing Toronto Center
02:05AM 44.1000 -81.8667 309° West 390 449 30,200 660 Climbing Toronto Center
02:06AM 44.1667 -81.9833 301° West 390 449 31,000 600 Climbing Toronto Center
02:07AM 44.2167 -82.1000 305° West 390 449 31,400 420 Climbing Toronto Center
02:08AM 44.2833 -82.2333 305° West 390 449 31,900 360 Climbing Toronto Center
02:09AM 44.3500 -82.3667 309° West 390 449 32,200 360 Climbing Toronto Center
02:10AM 44.4167 -82.4833 309° West 390 449 32,700 360 Climbing Toronto Center
02:11AM 44.4833 -82.6000 301° West 390 449 33,000 300 Climbing Toronto Center
02:12AM 44.5333 -82.7167 305° West 380 437 33,300 360 Climbing Toronto Center
02:13AM 44.6058 -82.8614 310° West 386 444 33,800 300 Climbing Minneapolis Center
02:14AM 44.6753 -82.9775 307° West 381 438 34,000 60 Climbing Minneapolis Center
02:15AM 44.7361 -83.0925 299° West 381 438 34,000  Level Minneapolis Center
02:16AM 44.7883 -83.2267 301° West 381 438 34,000  Level Minneapolis Center
02:17AM 44.8439 -83.3550 306° West 386 444 34,000  Level Minneapolis Center
02:18AM 44.9072 -83.4789 307° West 386 444 34,000  Level Minneapolis Center
02:19AM 44.9725 -83.6031 299° West 386 444 34,000  Level Minneapolis Center
02:20AM 45.0239 -83.7356 301° West 386 444 34,000  Level Minneapolis Center
02:21AM 45.0789 -83.8647 305° West 386 444 34,000  Level Minneapolis Center
02:22AM 45.1417 -83.9900 304° West 386 444 34,000  Level Minneapolis Center
02:23AM 45.2025 -84.1158 298° West 386 444 34,000  Level Minneapolis Center
02:26AM 45.3500 -84.5167 312° West 390 449 34,000  Level Toronto Center
02:27AM 45.4289 -84.6419 299° West 386 444 34,000  Level Minneapolis Center
02:30AM 45.5869 -85.0456 306° West 391 450 34,000  Level Minneapolis Center
02:31AM 45.6578 -85.1836 307° West 391 450 34,000  Level Minneapolis Center
02:32AM 45.7208 -85.3056 299° West 391 450 34,000  Level Minneapolis Center
02:33AM 45.7722 -85.4383 299° West 385 443 34,000  Level Minneapolis Center
02:34AM 45.8233 -85.5711 306° West 385 443 34,000  Level Minneapolis Center
02:35AM 45.8858 -85.6939 309° West 380 437 34,000  Level Minneapolis Center
02:36AM 45.9525 -85.8133 303° West 380 437 34,000  Level Minneapolis Center
02:37AM 46.0089 -85.9403 302° West 380 437 34,000  Level Minneapolis Center
02:38AM 46.0633 -86.0678 307° West 380 437 34,000  Level Minneapolis Center
02:39AM 46.1253 -86.1886 304° West 375 432 34,000  Level Minneapolis Center
02:40AM 46.1833 -86.3131 300° West 375 432 34,000  Level Minneapolis Center
02:41AM 46.2306 -86.4333 295° West 369 425 34,000  Level Minneapolis Center
02:42AM 46.2769 -86.5808 303° West 374 430 34,000  Level Minneapolis Center
02:43AM 46.3325 -86.7064 303° West 369 425 34,000  Level Minneapolis Center
02:44AM 46.3878 -86.8322 299° West 369 425 34,000  Level Minneapolis Center
02:45AM 46.4392 -86.9650 295° West 369 425 34,000  Level Minneapolis Center
02:46AM 46.4825 -87.1017 298° West 379 436 34,000  Level Minneapolis Center
02:47AM 46.5314 -87.2350 302° West 379 436 34,000  Level Minneapolis Center
02:48AM 46.5864 -87.3650 305° West 379 436 34,000  Level Minneapolis Center
02:49AM 46.6450 -87.4886 299° West 374 430 34,000  Level Minneapolis Center
02:50AM 46.6958 -87.6225 293° West 374 430 34,000  Level Minneapolis Center
02:51AM 46.7336 -87.7519 301° West 380 437 34,000  Level Minneapolis Center
02:52AM 46.7881 -87.8828 308° West 380 437 34,000  Level Minneapolis Center
02:53AM 46.8500 -88.0008 303° West 373 429 34,000  Level Minneapolis Center
02:54AM 46.9106 -88.1378 299° West 368 423 34,000  Level Minneapolis Center
02:55AM 46.9558 -88.2581 297° West 363 418 34,000  Level Minneapolis Center
02:56AM 47.0061 -88.4058 302° West 368 423 34,000  Level Minneapolis Center
02:57AM 47.0547 -88.5200 307° West 368 423 34,000  Level Minneapolis Center
02:58AM 47.1183 -88.6425 301° West 368 423 34,000  Level Minneapolis Center
02:59AM 47.1694 -88.7694 295° West 368 423 34,000  Level Minneapolis Center
03:00AM 47.2122 -88.9033 302° West 368 423 34,000  Level Minneapolis Center
03:01AM 47.2675 -89.0333 306° West 373 429 34,000  Level Minneapolis Center
03:02AM 47.3261 -89.1542 306° West 366 421 34,000  Level Minneapolis Center
03:03AM 47.3847 -89.2753 300° West 366 421 34,000  Level Minneapolis Center
03:04AM 47.4353 -89.4064 295° West 361 415 34,000  Level Minneapolis Center
03:05AM 47.4797 -89.5475 301° West 367 422 34,000  Level Minneapolis Center
03:06AM 47.5319 -89.6758 305° West 367 422 34,000  Level Minneapolis Center
03:07AM 47.5900 -89.8011 305° West 362 417 34,000  Level Minneapolis Center
03:08AM 47.6481 -89.9233 299° West 373 429 34,000  Level Minneapolis Center
03:09AM 47.6978 -90.0558 295° West 368 423 34,000  Level Minneapolis Center
03:10AM 47.7414 -90.1950 288° West 368 423 34,000  Level Minneapolis Center
03:11AM 47.7500 -90.2333 313° West 370 426 34,000  Level Winnipeg Center
03:12AM 47.8333 -90.3667 303° West 370 426 34,000  Level Winnipeg Center
03:13AM 47.8833 -90.4833 303° West 370 426 34,000  Level Winnipeg Center
03:14AM 47.9333 -90.6000 304° West 370 426 34,000  Level Winnipeg Center
03:15AM 48.0000 -90.7500 303° West 370 426 34,000  Level Winnipeg Center
03:16AM 48.0500 -90.8667 317° Northwest 370 426 34,000  Level Winnipeg Center
03:17AM 48.1333 -90.9833 303° West 370 426 34,000  Level Winnipeg Center
03:18AM 48.1833 -91.1000 307° West 370 426 34,000  Level Winnipeg Center
03:19AM 48.2500 -91.2333 299° West 370 426 34,000  Level Winnipeg Center
03:20AM 48.3000 -91.3667 303° West 370 426 34,000  Level Winnipeg Center
03:21AM 48.3500 -91.4833 317° Northwest 370 426 34,000  Level Winnipeg Center
03:22AM 48.4333 -91.6000 303° West 370 426 34,000  Level Winnipeg Center
03:23AM 48.4833 -91.7167 289° West 370 426 34,000  Level Winnipeg Center
03:24AM 48.5167 -91.8667 297° West 370 426 34,000  Level Winnipeg Center
03:25AM 48.5667 -92.0167 297° West 370 426 34,000  Level Winnipeg Center
03:26AM 48.6167 -92.1667 303° West 370 426 34,000  Level Winnipeg Center
03:27AM 48.6667 -92.2833 289° West 370 426 34,000  Level Winnipeg Center
03:28AM 48.7000 -92.4333 297° West 370 426 34,000  Level Winnipeg Center
03:29AM 48.7500 -92.5833 293° West 370 426 34,000  Level Winnipeg Center
03:30AM 48.7833 -92.7000 297° West 370 426 34,000  Level Winnipeg Center
03:31AM 48.8333 -92.8500 289° West 370 426 34,000  Level Winnipeg Center
03:32AM 48.8667 -93.0000 297° West 370 426 34,000  Level Winnipeg Center
03:33AM 48.9167 -93.1500 294° West 370 426 34,000  Level Winnipeg Center
03:34AM 48.9500 -93.2667 289° West 370 426 34,000  Level Winnipeg Center
03:35AM 48.9833 -93.4167 289° West 370 426 34,000  Level Winnipeg Center
03:36AM 49.0167 -93.5667 297° West 380 437 34,000  Level Winnipeg Center
03:37AM 49.0667 -93.7167 287° West 370 426 34,000  Level Winnipeg Center
03:38AM 49.1000 -93.8833 289° West 380 437 34,000  Level Winnipeg Center
03:39AM 49.1333 -94.0333 297° West 380 437 34,000  Level Winnipeg Center
03:40AM 49.1833 -94.1833 289° West 380 437 34,000  Level Winnipeg Center
03:41AM 49.2167 -94.3333 280° West 380 437 34,000  Level Winnipeg Center
03:42AM 49.2333 -94.4833 297° West 390 449 34,000  Level Winnipeg Center
03:43AM 49.2833 -94.6333 289° West 380 437 34,000  Level Winnipeg Center
03:44AM 49.3167 -94.7833 304° West 390 449 34,000  Level Winnipeg Center
03:45AM 49.3833 -94.9333 289° West 390 449 34,000  Level Winnipeg Center
03:46AM 49.4167 -95.0833 287° West 390 449 34,000  Level Winnipeg Center
03:47AM 49.4500 -95.2500 287° West 390 449 34,000  Level Winnipeg Center
03:48AM 49.4833 -95.4167 297° West 390 449 34,000 -900 Level Winnipeg Center
03:49AM 49.5333 -95.5667 287° West 400 460 32,200 -2,580 Descending Winnipeg Center
03:50AM 49.5667 -95.7333 289° West 390 449 28,900 -3,000 Descending Winnipeg Center
03:51AM 49.6000 -95.8833 297° West 390 449 26,200 -2,880 Descending Winnipeg Center
03:52AM 49.6500 -96.0333 300° West 370 426 23,200 -2,880 Descending Winnipeg Center
03:53AM 49.7000 -96.1667 289° West 360 414 20,500 -2,940 Descending Winnipeg Center
03:54AM 49.7333 -96.3167 291° West 350 403 17,400 -2,940 Descending Winnipeg Center
03:55AM 49.7667 -96.4500 300° West 350 403 14,700 -2,760 Descending Winnipeg Center
03:56AM 49.8167 -96.5833 294° West 340 391 11,900 -1,800 Descending Winnipeg Center
03:57AM 49.8500 -96.7000 294° West 320 368 11,200 -1,200 Descending Winnipeg Center
03:58AM 49.8833 -96.8167 297° West 280 322 9,500 -1,980 Descending Winnipeg Center
03:59AM 49.9167 -96.9167 291° West 280 322 7,300 -2,160 Descending Winnipeg Center
04:00AM 49.9500 -97.0500 285° West 290 334 5,200 -1,980 Descending Winnipeg Center
04:01AM 49.9667 -97.1500 287° West 250 288 3,400 -1,500 Descending Winnipeg Center
04:02AM 49.9833 -97.2333 180° South 210 242 2,200 -960 Descending Winnipeg Center
04:03AM 49.9333 -97.2333 180° South 150 173 1,500 -720 Descending Winnipeg Center
04:04AM 49.9000 -97.2333 180° South 140 161 800 -720 Descending Winnipeg Center